createdAt,value
2022-11-29T00:01:02.050Z,5.26
2022-11-29T00:03:32.787Z,5.31
2022-11-29T00:06:11.975Z,5.24
2022-11-29T00:08:39.531Z,5.29
2022-11-29T00:11:09.091Z,5.29
2022-11-29T00:13:36.049Z,5.27
2022-11-29T00:16:04.807Z,5.30
2022-11-29T00:18:31.814Z,5.33
2022-11-29T00:20:58.716Z,5.33
2022-11-29T00:23:26.079Z,5.30
2022-11-29T00:25:53.411Z,5.30
2022-11-29T00:28:20.250Z,5.28
2022-11-29T00:30:47.485Z,5.28
2022-11-29T00:33:14.378Z,5.26
2022-11-29T00:35:41.172Z,5.27
2022-11-29T00:38:08.133Z,5.28
2022-11-29T00:40:34.975Z,5.24
2022-11-29T00:43:03.144Z,5.25
2022-11-29T00:45:30.009Z,5.26
2022-11-29T00:47:56.875Z,5.24
2022-11-29T00:50:23.677Z,5.25
2022-11-29T00:52:50.557Z,5.24
2022-11-29T00:55:17.517Z,5.23
2022-11-29T00:57:44.380Z,5.26
2022-11-29T01:00:11.789Z,5.26
2022-11-29T01:02:38.702Z,5.28
2022-11-29T01:05:05.854Z,5.26
2022-11-29T01:07:32.768Z,5.28
2022-11-29T01:09:59.637Z,5.26
2022-11-29T01:12:26.501Z,5.23
2022-11-29T01:14:53.317Z,5.24
2022-11-29T01:17:20.170Z,5.23
2022-11-29T01:19:50.800Z,5.23
2022-11-29T01:22:18.673Z,5.22
2022-11-29T01:24:45.690Z,5.22
2022-11-29T01:27:12.718Z,5.22
2022-11-29T01:29:39.605Z,5.22
2022-11-29T01:32:06.425Z,5.21
2022-11-29T01:34:33.233Z,5.22
2022-11-29T01:37:00.045Z,5.20
2022-11-29T01:39:26.918Z,5.19
2022-11-29T01:41:53.873Z,5.18
2022-11-29T01:44:20.907Z,5.19
2022-11-29T01:46:48.681Z,5.19
2022-11-29T01:49:48.538Z,5.21
2022-11-29T01:52:21.390Z,5.23
2022-11-29T01:54:55.536Z,5.19
2022-11-29T01:57:23.431Z,5.20
2022-11-29T01:59:54.548Z,5.18
2022-11-29T02:02:29.401Z,5.12
2022-11-29T02:04:58.477Z,5.15
2022-11-29T02:07:25.388Z,5.14
2022-11-29T02:09:52.307Z,5.17
2022-11-29T02:12:38.037Z,5.14
2022-11-29T02:15:13.698Z,5.13
2022-11-29T02:17:52.550Z,5.15
2022-11-29T02:20:47.414Z,5.15
2022-11-29T02:23:42.796Z,5.16
2022-11-29T02:26:21.709Z,5.17
2022-11-29T02:29:09.757Z,5.12
2022-11-29T02:32:14.142Z,5.09
2022-11-29T02:35:02.493Z,5.10
2022-11-29T02:37:44.317Z,5.08
2022-11-29T02:40:26.616Z,5.11
2022-11-29T02:43:05.493Z,5.10
2022-11-29T02:45:41.263Z,5.09
2022-11-29T02:48:46.003Z,5.08
2022-11-29T02:51:23.546Z,5.07
2022-11-29T02:53:57.720Z,5.10
2022-11-29T02:56:33.042Z,5.09
2022-11-29T02:59:16.365Z,5.08
2022-11-29T03:02:08.365Z,5.07
2022-11-29T03:04:54.920Z,5.00
2022-11-29T03:07:30.890Z,4.96
2022-11-29T03:10:16.244Z,4.93
2022-11-29T03:12:49.459Z,4.88
2022-11-29T03:15:33.497Z,4.93
2022-11-29T03:18:13.353Z,4.88
2022-11-29T03:21:03.962Z,4.98
2022-11-29T03:23:53.687Z,5.03
2022-11-29T03:26:26.748Z,5.05
2022-11-29T03:29:07.447Z,5.04
2022-11-29T03:31:52.401Z,5.04
2022-11-29T03:34:37.673Z,5.04
2022-11-29T03:37:20.205Z,5.05
2022-11-29T03:39:57.629Z,5.04
2022-11-29T03:42:40.768Z,5.06
2022-11-29T03:45:22.855Z,5.06
2022-11-29T03:48:15.949Z,5.05
2022-11-29T03:50:48.914Z,5.06
2022-11-29T03:53:34.456Z,5.08
2022-11-29T03:56:05.206Z,5.10
2022-11-29T03:59:05.725Z,5.06
2022-11-29T04:01:50.783Z,5.08
2022-11-29T04:04:36.620Z,5.08
2022-11-29T04:07:24.878Z,5.08
2022-11-29T04:10:19.473Z,5.06
2022-11-29T04:12:49.350Z,5.08
2022-11-29T04:15:35.040Z,5.09
2022-11-29T04:18:10.824Z,5.08
2022-11-29T04:21:23.030Z,5.09
2022-11-29T04:24:44.840Z,4.99
2022-11-29T04:27:17.711Z,5.01
2022-11-29T04:29:50.362Z,5.04
2022-11-29T04:32:41.949Z,4.97
2022-11-29T04:35:23.633Z,4.91
2022-11-29T04:38:09.776Z,5.01
2022-11-29T04:41:07.388Z,5.11
2022-11-29T04:43:55.790Z,4.96
2022-11-29T04:46:44.134Z,4.94
2022-11-29T04:49:48.397Z,5.08
2022-11-29T04:52:31.530Z,5.13
2022-11-29T04:55:29.442Z,5.14
2022-11-29T04:58:19.461Z,5.15
2022-11-29T05:01:20.486Z,5.15
2022-11-29T05:03:57.201Z,5.14
2022-11-29T05:06:39.473Z,5.16
2022-11-29T05:09:18.099Z,5.17
2022-11-29T05:11:58.577Z,5.18
2022-11-29T05:14:34.528Z,5.17
2022-11-29T05:17:21.015Z,5.17
2022-11-29T05:20:06.497Z,5.18
2022-11-29T05:23:02.863Z,5.18
2022-11-29T05:25:35.589Z,5.17
2022-11-29T05:28:11.045Z,5.18
2022-11-29T05:30:49.700Z,5.18
2022-11-29T05:33:42.862Z,5.21
2022-11-29T05:36:41.591Z,5.19
2022-11-29T05:39:27.269Z,5.20
2022-11-29T05:42:14.604Z,5.18
2022-11-29T05:44:50.512Z,5.18
2022-11-29T05:48:01.911Z,5.19
2022-11-29T05:50:33.363Z,5.22
2022-11-29T05:53:37.526Z,5.19
2022-11-29T05:56:18.323Z,5.18
2022-11-29T05:58:59.240Z,5.18
2022-11-29T06:01:38.111Z,5.19
2022-11-29T06:04:35.708Z,5.18
2022-11-29T06:07:21.166Z,5.21
2022-11-29T06:10:12.776Z,5.21
2022-11-29T06:12:41.511Z,5.22
2022-11-29T06:15:20.377Z,5.20
2022-11-29T06:18:18.722Z,5.21
2022-11-29T06:20:55.704Z,5.20
2022-11-29T06:24:11.433Z,5.19
2022-11-29T06:27:00.085Z,5.21
2022-11-29T06:29:49.812Z,5.21
2022-11-29T06:32:40.370Z,5.19
2022-11-29T06:35:26.051Z,5.20
2022-11-29T06:37:57.264Z,5.20
2022-11-29T06:40:24.539Z,5.20
2022-11-29T06:42:51.430Z,5.20
2022-11-29T06:45:24.999Z,5.20
2022-11-29T06:48:06.923Z,5.20
2022-11-29T06:51:01.743Z,5.24
2022-11-29T06:53:37.369Z,5.22
2022-11-29T06:56:13.085Z,5.22
2022-11-29T06:58:46.092Z,5.24
2022-11-29T07:01:39.905Z,5.23
2022-11-29T07:04:29.725Z,5.25
2022-11-29T07:06:56.725Z,5.24
2022-11-29T07:09:32.300Z,5.26
2022-11-29T07:11:59.480Z,5.26
2022-11-29T07:14:26.579Z,5.26
2022-11-29T07:17:06.011Z,5.26
2022-11-29T07:19:50.223Z,5.29
2022-11-29T07:22:39.247Z,5.27
2022-11-29T07:25:27.569Z,5.29
2022-11-29T07:28:28.429Z,5.29
2022-11-29T07:31:22.787Z,5.31
2022-11-29T07:34:02.761Z,5.30
2022-11-29T07:36:53.400Z,5.30
2022-11-29T07:39:38.888Z,5.30
2022-11-29T07:42:24.341Z,5.17
2022-11-29T07:45:07.126Z,5.15
2022-11-29T07:47:35.921Z,5.24
2022-11-29T07:50:03.950Z,5.23
2022-11-29T07:52:30.835Z,5.31
2022-11-29T07:54:57.738Z,5.31
2022-11-29T07:57:24.532Z,5.14
2022-11-29T07:59:51.370Z,5.21
2022-11-29T08:02:31.817Z,5.29
2022-11-29T08:04:58.908Z,5.21
2022-11-29T08:07:25.819Z,5.27
2022-11-29T08:09:52.629Z,5.35
2022-11-29T08:12:19.739Z,5.37
2022-11-29T08:14:46.789Z,5.38
2022-11-29T08:17:13.724Z,5.40
2022-11-29T08:19:40.586Z,5.40
2022-11-29T08:22:07.444Z,5.41
2022-11-29T08:24:34.303Z,5.45
2022-11-29T08:27:01.146Z,5.46
2022-11-29T08:29:28.138Z,5.49
2022-11-29T08:31:55.217Z,5.50
2022-11-29T08:34:23.722Z,5.50
2022-11-29T08:36:51.624Z,5.52
2022-11-29T08:39:18.430Z,5.55
2022-11-29T08:41:45.232Z,5.55
2022-11-29T08:44:12.024Z,5.57
2022-11-29T08:46:57.526Z,5.58
2022-11-29T08:49:24.342Z,5.58
2022-11-29T08:52:12.756Z,5.61
2022-11-29T08:54:39.586Z,5.65
2022-11-29T08:57:37.921Z,5.70
2022-11-29T08:59:53.181Z,5.72
2022-11-29T09:02:20.061Z,5.78
2022-11-29T09:04:47.014Z,5.78
2022-11-29T09:07:14.056Z,5.79
2022-11-29T09:09:41.006Z,5.82
2022-11-29T09:12:08.936Z,5.84
2022-11-29T09:14:35.789Z,5.85
2022-11-29T09:17:02.636Z,5.74
2022-11-29T09:19:29.474Z,5.81
2022-11-29T09:21:56.485Z,5.87
2022-11-29T09:24:23.332Z,5.87
2022-11-29T09:26:50.163Z,5.89
2022-11-29T09:29:17.989Z,5.91
2022-11-29T09:31:47.616Z,5.91
2022-11-29T09:34:16.038Z,5.92
2022-11-29T09:36:44.271Z,5.91
2022-11-29T09:39:12.596Z,5.92
2022-11-29T09:42:01.158Z,5.92
2022-11-29T09:44:52.762Z,5.94
2022-11-29T09:47:27.708Z,5.95
2022-11-29T09:50:04.032Z,5.98
2022-11-29T09:52:39.891Z,5.98
2022-11-29T09:55:25.419Z,6.01
2022-11-29T09:57:55.693Z,6.01
2022-11-29T10:00:22.774Z,6.01
2022-11-29T10:03:04.163Z,6.03
2022-11-29T10:05:41.343Z,6.06
2022-11-29T10:08:22.879Z,6.07
2022-11-29T10:10:54.174Z,6.09
2022-11-29T10:13:34.755Z,6.09
2022-11-29T10:16:27.758Z,6.10
2022-11-29T10:19:17.677Z,6.10
2022-11-29T10:22:18.730Z,6.10
2022-11-29T10:24:49.983Z,6.11
2022-11-29T10:27:23.857Z,6.12
2022-11-29T10:29:51.780Z,6.11
2022-11-29T10:32:21.390Z,6.11
2022-11-29T10:34:52.241Z,6.13
2022-11-29T10:37:21.512Z,6.14
2022-11-29T10:39:58.777Z,6.14
2022-11-29T10:42:47.420Z,6.15
2022-11-29T10:45:17.203Z,6.15
2022-11-29T10:47:47.221Z,6.18
2022-11-29T10:50:21.119Z,6.18
2022-11-29T10:52:47.998Z,6.19
2022-11-29T10:55:16.745Z,6.20
2022-11-29T10:58:10.256Z,6.20
2022-11-29T11:00:51.776Z,6.20
2022-11-29T11:03:33.932Z,6.21
2022-11-29T11:06:09.448Z,6.21
2022-11-29T11:08:38.354Z,6.22
2022-11-29T11:11:07.742Z,6.22
2022-11-29T11:13:35.950Z,6.23
2022-11-29T11:16:15.494Z,6.23
2022-11-29T11:18:42.979Z,6.24
2022-11-29T11:21:15.586Z,6.25
2022-11-29T11:23:48.391Z,6.29
2022-11-29T11:26:15.302Z,6.30
2022-11-29T11:28:54.986Z,6.31
2022-11-29T11:31:56.277Z,6.36
2022-11-29T11:34:35.554Z,6.38
2022-11-29T11:37:20.049Z,6.41
2022-11-29T11:39:49.948Z,6.48
2022-11-29T11:42:37.802Z,6.50
2022-11-29T11:45:23.199Z,6.52
2022-11-29T11:47:55.554Z,6.55
2022-11-29T11:50:30.512Z,6.57
2022-11-29T11:53:02.385Z,6.61
2022-11-29T11:55:37.306Z,6.63
2022-11-29T11:58:13.138Z,6.67
2022-11-29T12:01:06.392Z,6.71
2022-11-29T12:03:40.993Z,6.73
2022-11-29T12:06:29.406Z,6.74
2022-11-29T12:09:22.146Z,6.76
2022-11-29T12:12:12.889Z,6.80
2022-11-29T12:14:45.788Z,6.83
2022-11-29T12:17:35.015Z,6.83
2022-11-29T12:20:07.587Z,6.86
2022-11-29T12:22:47.929Z,6.85
2022-11-29T12:25:21.952Z,6.86
2022-11-29T12:27:50.380Z,6.88
2022-11-29T12:30:18.965Z,6.89
2022-11-29T12:33:07.260Z,6.91
2022-11-29T12:35:58.644Z,6.91
2022-11-29T12:38:41.019Z,6.92
2022-11-29T12:41:20.292Z,6.94
2022-11-29T12:43:49.867Z,6.94
2022-11-29T12:46:28.446Z,6.96
2022-11-29T12:49:10.321Z,6.97
2022-11-29T12:52:00.293Z,6.98
2022-11-29T12:55:02.825Z,6.99
2022-11-29T12:57:50.586Z,7.00
2022-11-29T13:00:19.996Z,7.03
2022-11-29T13:03:13.391Z,7.02
2022-11-29T13:05:40.294Z,7.04
2022-11-29T13:08:25.928Z,7.06
2022-11-29T13:10:52.703Z,7.07
2022-11-29T13:13:39.805Z,7.08
2022-11-29T13:16:15.904Z,7.09
2022-11-29T13:18:57.006Z,7.11
2022-11-29T13:21:46.484Z,7.14
2022-11-29T13:24:24.485Z,7.14
2022-11-29T13:26:52.858Z,7.15
2022-11-29T13:29:21.054Z,7.15
2022-11-29T13:31:48.819Z,7.17
2022-11-29T13:34:30.217Z,7.19
2022-11-29T13:37:15.487Z,7.19
2022-11-29T13:40:06.760Z,7.19
2022-11-29T13:42:51.972Z,7.19
2022-11-29T13:45:25.517Z,7.12
2022-11-29T13:47:59.040Z,7.16
2022-11-29T13:50:38.895Z,7.19
2022-11-29T13:53:18.447Z,7.20
2022-11-29T13:56:02.153Z,7.21
2022-11-29T13:58:32.197Z,7.21
2022-11-29T14:01:06.580Z,7.22
2022-11-29T14:03:42.040Z,7.21
2022-11-29T14:06:15.649Z,7.21
2022-11-29T14:09:20.658Z,7.22
2022-11-29T14:12:21.683Z,7.21
2022-11-29T14:14:57.169Z,7.19
2022-11-29T14:18:16.159Z,7.18
2022-11-29T14:20:45.403Z,7.17
2022-11-29T14:23:15.329Z,7.16
2022-11-29T14:26:03.106Z,7.15
2022-11-29T14:28:40.829Z,7.12
2022-11-29T14:31:10.929Z,7.11
2022-11-29T14:33:46.847Z,7.08
2022-11-29T14:36:53.156Z,7.04
2022-11-29T14:39:49.114Z,7.01
2022-11-29T14:42:21.637Z,6.98
2022-11-29T14:45:01.505Z,6.94
2022-11-29T14:47:33.034Z,6.92
2022-11-29T14:50:04.250Z,6.94
2022-11-29T14:52:50.479Z,6.92
2022-11-29T14:55:17.227Z,6.91
2022-11-29T14:57:47.102Z,6.90
2022-11-29T15:00:42.123Z,6.88
2022-11-29T15:03:21.366Z,6.86
2022-11-29T15:05:55.499Z,6.86
2022-11-29T15:08:37.424Z,6.86
2022-11-29T15:11:10.195Z,6.85
2022-11-29T15:13:45.256Z,6.81
2022-11-29T15:16:27.394Z,6.78
2022-11-29T15:19:20.607Z,6.74
2022-11-29T15:21:59.498Z,6.74
2022-11-29T15:24:28.773Z,6.74
2022-11-29T15:27:03.542Z,6.70
2022-11-29T15:29:31.779Z,6.69
2022-11-29T15:32:03.636Z,6.67
2022-11-29T15:34:50.380Z,6.67
2022-11-29T15:37:42.716Z,6.66
2022-11-29T15:40:18.376Z,6.65
2022-11-29T15:42:54.198Z,6.65
2022-11-29T15:45:31.663Z,6.61
2022-11-29T15:48:18.159Z,6.59
2022-11-29T15:50:57.056Z,6.51
2022-11-29T15:53:38.233Z,6.49
2022-11-29T15:56:13.479Z,6.49
2022-11-29T15:58:40.685Z,6.46
2022-11-29T16:01:08.471Z,6.39
2022-11-29T16:03:39.341Z,6.41
2022-11-29T16:06:19.235Z,6.41
2022-11-29T16:08:47.043Z,6.38
2022-11-29T16:11:17.525Z,6.34
2022-11-29T16:14:13.659Z,6.35
2022-11-29T16:16:42.715Z,6.34
2022-11-29T16:19:21.608Z,6.35
2022-11-29T16:22:08.463Z,6.32
2022-11-29T16:24:37.582Z,6.30
2022-11-29T16:27:06.329Z,6.27
2022-11-29T16:29:38.734Z,6.26
2022-11-29T16:32:15.268Z,6.23
2022-11-29T16:34:44.226Z,6.22
2022-11-29T16:37:20.254Z,6.22
2022-11-29T16:39:49.693Z,6.22
2022-11-29T16:42:26.126Z,6.17
2022-11-29T16:45:01.971Z,6.15
2022-11-29T16:47:31.572Z,6.14
2022-11-29T16:50:01.555Z,6.10
2022-11-29T16:52:33.004Z,6.14
2022-11-29T16:55:00.292Z,6.04
2022-11-29T16:57:29.325Z,6.06
2022-11-29T16:59:56.225Z,6.05
2022-11-29T17:02:23.068Z,6.09
2022-11-29T17:04:51.625Z,6.07
2022-11-29T17:07:29.642Z,6.07
2022-11-29T17:09:57.471Z,6.09
2022-11-29T17:12:24.565Z,6.08
2022-11-29T17:14:51.470Z,6.02
2022-11-29T17:17:19.427Z,6.01
2022-11-29T17:19:46.624Z,6.06
2022-11-29T17:22:13.616Z,6.04
2022-11-29T17:24:46.417Z,5.99
2022-11-29T17:27:15.518Z,6.05
2022-11-29T17:29:42.460Z,6.05
2022-11-29T17:32:10.853Z,6.00
2022-11-29T17:34:38.451Z,5.97
2022-11-29T17:37:05.882Z,6.00
2022-11-29T17:39:33.840Z,5.88
2022-11-29T17:42:00.807Z,5.79
2022-11-29T17:44:30.823Z,5.82
2022-11-29T17:46:58.085Z,5.86
2022-11-29T17:49:25.275Z,5.89
2022-11-29T17:51:53.468Z,5.80
2022-11-29T17:54:22.284Z,5.93
2022-11-29T17:56:50.189Z,5.92
2022-11-29T17:59:17.365Z,5.91
2022-11-29T18:01:47.145Z,5.90
2022-11-29T18:04:15.089Z,5.91
2022-11-29T18:06:42.283Z,5.93
2022-11-29T18:09:12.010Z,6.03
2022-11-29T18:11:49.894Z,5.96
2022-11-29T18:14:24.106Z,5.88
2022-11-29T18:16:52.399Z,5.96
2022-11-29T18:19:21.647Z,5.96
2022-11-29T18:21:49.616Z,5.93
2022-11-29T18:24:18.427Z,5.96
2022-11-29T18:26:46.052Z,5.92
2022-11-29T18:29:13.317Z,5.91
2022-11-29T18:31:42.952Z,5.91
2022-11-29T18:34:11.922Z,5.89
2022-11-29T18:36:43.340Z,5.95
2022-11-29T18:39:14.548Z,5.87
2022-11-29T18:41:44.012Z,5.90
2022-11-29T18:44:13.665Z,5.87
2022-11-29T18:46:43.472Z,5.89
2022-11-29T18:49:13.750Z,5.88
2022-11-29T18:51:43.289Z,5.88
2022-11-29T18:54:10.775Z,5.88
2022-11-29T18:56:38.812Z,5.87
2022-11-29T18:59:10.359Z,5.88
2022-11-29T19:01:43.024Z,5.84
2022-11-29T19:04:14.214Z,5.86
2022-11-29T19:06:42.131Z,5.88
2022-11-29T19:09:21.566Z,5.89
2022-11-29T19:11:50.261Z,5.86
2022-11-29T19:14:18.154Z,5.89
2022-11-29T19:16:47.373Z,5.89
2022-11-29T19:19:14.271Z,5.87
2022-11-29T19:21:44.064Z,5.87
2022-11-29T19:24:16.333Z,5.87
2022-11-29T19:26:46.258Z,5.91
2022-11-29T19:29:15.624Z,5.92
2022-11-29T19:31:43.108Z,5.92
2022-11-29T19:34:11.324Z,5.85
2022-11-29T19:36:43.982Z,5.87
2022-11-29T19:39:16.888Z,5.86
2022-11-29T19:41:47.386Z,5.84
2022-11-29T19:44:15.416Z,5.89
2022-11-29T19:46:46.195Z,5.91
2022-11-29T19:49:13.690Z,5.91
2022-11-29T19:51:40.627Z,5.92
2022-11-29T19:54:09.706Z,5.92
2022-11-29T19:56:37.333Z,5.90
2022-11-29T19:59:05.981Z,5.89
2022-11-29T20:01:40.287Z,5.90
2022-11-29T20:04:10.834Z,5.79
2022-11-29T20:06:38.680Z,5.74
2022-11-29T20:09:06.950Z,5.92
2022-11-29T20:11:34.206Z,5.95
2022-11-29T20:14:02.770Z,5.95
2022-11-29T20:16:30.826Z,5.94
2022-11-29T20:19:01.893Z,5.96
2022-11-29T20:21:34.299Z,5.94
2022-11-29T20:24:04.899Z,5.95
2022-11-29T20:26:34.342Z,5.93
2022-11-29T20:29:03.932Z,5.93
2022-11-29T20:31:34.106Z,5.95
2022-11-29T20:34:01.951Z,5.93
2022-11-29T20:36:49.124Z,5.92
2022-11-29T20:39:43.443Z,5.85
2022-11-29T20:42:29.504Z,5.90
2022-11-29T20:44:58.043Z,5.92
2022-11-29T20:47:33.394Z,5.91
2022-11-29T20:50:01.404Z,5.91
2022-11-29T20:52:52.200Z,5.89
2022-11-29T20:55:19.540Z,5.86
2022-11-29T20:57:47.051Z,5.84
2022-11-29T21:00:16.074Z,5.84
2022-11-29T21:02:43.228Z,5.84
2022-11-29T21:05:10.657Z,5.83
2022-11-29T21:07:40.120Z,5.84
2022-11-29T21:10:08.128Z,5.83
2022-11-29T21:12:35.445Z,5.83
2022-11-29T21:15:02.781Z,5.82
2022-11-29T21:17:33.650Z,5.83
2022-11-29T21:20:01.361Z,5.84
2022-11-29T21:22:28.386Z,5.84
2022-11-29T21:25:01.070Z,5.83
2022-11-29T21:27:31.966Z,5.81
2022-11-29T21:29:59.353Z,5.79
2022-11-29T21:32:27.464Z,5.78
2022-11-29T21:34:54.445Z,5.80
2022-11-29T21:37:25.440Z,5.81
2022-11-29T21:39:53.683Z,5.77
2022-11-29T21:42:20.696Z,5.76
2022-11-29T21:44:47.745Z,5.76
2022-11-29T21:47:15.595Z,5.76
2022-11-29T21:49:42.470Z,5.76
2022-11-29T21:52:09.257Z,5.74
2022-11-29T21:54:36.056Z,5.76
2022-11-29T21:57:02.931Z,5.74
2022-11-29T21:59:29.736Z,5.73
2022-11-29T22:01:56.869Z,5.72
2022-11-29T22:04:23.841Z,5.74
2022-11-29T22:06:50.655Z,5.71
2022-11-29T22:09:17.454Z,5.55
2022-11-29T22:11:44.252Z,5.52
2022-11-29T22:14:14.203Z,5.66
2022-11-29T22:16:52.560Z,5.73
2022-11-29T22:19:22.818Z,5.73
2022-11-29T22:21:52.297Z,5.55
2022-11-29T22:24:21.779Z,5.51
2022-11-29T22:26:49.680Z,5.50
2022-11-29T22:29:17.363Z,5.47
2022-11-29T22:31:46.953Z,5.47
2022-11-29T22:34:14.343Z,5.47
2022-11-29T22:36:41.630Z,5.48
2022-11-29T22:39:09.319Z,5.46
2022-11-29T22:41:37.479Z,5.48
2022-11-29T22:44:05.046Z,5.49
2022-11-29T22:46:32.823Z,5.47
2022-11-29T22:49:00.688Z,5.46
2022-11-29T22:51:32.427Z,5.45
2022-11-29T22:54:01.812Z,5.48
2022-11-29T22:56:31.370Z,5.48
2022-11-29T22:58:58.749Z,5.47
2022-11-29T23:01:28.029Z,5.47
2022-11-29T23:03:57.215Z,5.48
2022-11-29T23:06:26.867Z,5.46
2022-11-29T23:08:55.257Z,5.48
2022-11-29T23:11:25.397Z,5.49
2022-11-29T23:13:52.589Z,5.50
2022-11-29T23:16:23.026Z,5.49
2022-11-29T23:18:50.593Z,5.48
2022-11-29T23:21:20.832Z,5.48
2022-11-29T23:23:51.582Z,5.52
2022-11-29T23:26:28.197Z,5.49
2022-11-29T23:28:55.839Z,5.51
2022-11-29T23:31:24.065Z,5.51
2022-11-29T23:33:51.250Z,5.52
2022-11-29T23:36:18.090Z,5.51
2022-11-29T23:38:45.109Z,5.52
2022-11-29T23:41:12.442Z,5.51
2022-11-29T23:43:40.882Z,5.50
2022-11-29T23:46:16.643Z,5.53
2022-11-29T23:48:44.251Z,5.51
2022-11-29T23:51:12.011Z,5.51
2022-11-29T23:53:39.604Z,5.50
2022-11-29T23:56:10.387Z,5.50
2022-11-29T23:58:38.073Z,5.48
